createdAt,value
2023-03-04T00:00:29.000Z,14.02
2023-03-04T00:02:55.383Z,14.90
2023-03-04T00:05:21.788Z,13.25
2023-03-04T00:07:48.199Z,14.32
2023-03-04T00:10:14.659Z,14.50
2023-03-04T00:12:41.092Z,15.18
2023-03-04T00:15:07.731Z,16.08
2023-03-04T00:17:34.144Z,18.58
2023-03-04T00:20:00.472Z,18.00
2023-03-04T00:22:26.788Z,15.45
2023-03-04T00:24:53.133Z,17.10
2023-03-04T00:27:19.448Z,16.55
2023-03-04T00:29:45.778Z,14.73
2023-03-04T00:32:12.891Z,15.50
2023-03-04T00:34:40.578Z,14.83
2023-03-04T00:37:06.911Z,14.20
2023-03-04T00:39:33.242Z,13.80
2023-03-04T00:41:59.623Z,13.35
2023-03-04T00:44:26.000Z,13.60
2023-03-04T00:46:52.400Z,14.13
2023-03-04T00:49:18.775Z,12.73
2023-03-04T00:51:45.097Z,13.30
2023-03-04T00:54:11.449Z,13.15
2023-03-04T00:56:37.778Z,14.02
2023-03-04T00:59:04.319Z,14.43
2023-03-04T01:01:30.843Z,15.35
2023-03-04T01:03:57.216Z,12.80
2023-03-04T01:06:23.646Z,14.95
2023-03-04T01:08:50.049Z,14.63
2023-03-04T01:11:16.433Z,15.48
2023-03-04T01:13:42.824Z,14.23
2023-03-04T01:16:10.928Z,13.75
2023-03-04T01:18:37.294Z,13.85
2023-03-04T01:21:03.753Z,12.45
2023-03-04T01:23:30.079Z,14.18
2023-03-04T01:25:56.406Z,13.88
2023-03-04T01:28:22.811Z,13.85
2023-03-04T01:30:49.273Z,12.80
2023-03-04T01:33:15.602Z,13.60
2023-03-04T01:35:41.994Z,13.45
2023-03-04T01:38:08.424Z,13.25
2023-03-04T01:40:34.983Z,13.27
2023-03-04T01:43:01.398Z,11.55
2023-03-04T01:45:28.266Z,10.80
2023-03-04T01:47:54.665Z,14.00
2023-03-04T01:50:23.354Z,12.10
2023-03-04T01:52:49.820Z,11.65
2023-03-04T01:55:17.105Z,10.10
2023-03-04T01:57:44.011Z,9.90
2023-03-04T02:00:25.614Z,13.48
2023-03-04T02:02:57.494Z,13.00
2023-03-04T02:05:24.600Z,12.98
2023-03-04T02:07:52.128Z,10.03
2023-03-04T02:10:18.750Z,10.77
2023-03-04T02:12:45.464Z,12.30
2023-03-04T02:15:11.921Z,8.13
2023-03-04T02:17:38.326Z,12.65
2023-03-04T02:20:07.837Z,9.90
2023-03-04T02:22:37.343Z,12.82
2023-03-04T02:25:06.553Z,9.68
2023-03-04T02:27:32.947Z,9.20
2023-03-04T02:29:59.280Z,10.05
2023-03-04T02:32:25.632Z,8.88
2023-03-04T02:34:52.134Z,10.82
2023-03-04T02:37:19.420Z,9.75
2023-03-04T02:39:47.345Z,9.15
2023-03-04T02:42:13.897Z,10.80
2023-03-04T02:44:41.913Z,9.88
2023-03-04T02:49:35.846Z,11.30
2023-03-04T02:52:06.616Z,10.88
2023-03-04T02:54:33.449Z,8.45
2023-03-04T02:57:00.954Z,8.85
2023-03-04T02:59:27.628Z,7.40
2023-03-04T03:01:54.330Z,10.40
2023-03-04T03:04:21.551Z,8.63
2023-03-04T03:06:48.317Z,10.60
2023-03-04T03:09:14.877Z,7.25
2023-03-04T03:11:41.371Z,6.88
2023-03-04T03:14:07.878Z,10.68
2023-03-04T03:16:34.358Z,11.68
2023-03-04T03:19:00.970Z,7.72
2023-03-04T03:21:27.334Z,8.45
2023-03-04T03:23:53.664Z,7.10
2023-03-04T03:26:20.075Z,9.55
2023-03-04T03:28:46.396Z,6.85
2023-03-04T03:31:13.337Z,7.00
2023-03-04T03:33:39.744Z,5.68
2023-03-04T03:36:09.153Z,7.50
2023-03-04T03:38:35.561Z,7.10
2023-03-04T03:41:01.906Z,7.55
2023-03-04T03:43:28.260Z,8.27
2023-03-04T03:45:54.620Z,7.85
2023-03-04T03:48:20.968Z,7.97
2023-03-04T03:50:47.313Z,7.40
2023-03-04T03:53:13.705Z,8.60
2023-03-04T03:55:40.114Z,9.73
2023-03-04T03:58:06.524Z,8.50
2023-03-04T04:00:32.877Z,10.27
2023-03-04T04:02:59.896Z,12.52
2023-03-04T04:05:26.560Z,9.15
2023-03-04T04:07:54.180Z,8.15
2023-03-04T04:10:21.545Z,7.90
2023-03-04T04:12:47.915Z,10.60
2023-03-04T04:15:14.283Z,8.63
2023-03-04T04:17:40.625Z,7.22
2023-03-04T04:20:08.017Z,11.15
2023-03-04T04:22:34.339Z,12.32
2023-03-04T04:25:01.558Z,9.48
2023-03-04T04:27:28.357Z,11.52
2023-03-04T04:29:54.668Z,9.85
2023-03-04T04:32:21.086Z,10.18
2023-03-04T04:34:47.507Z,11.10
2023-03-04T04:37:13.830Z,12.70
2023-03-04T04:39:40.140Z,11.55
2023-03-04T04:42:06.473Z,10.95
2023-03-04T04:44:32.851Z,14.57
2023-03-04T04:46:59.276Z,10.68
2023-03-04T04:49:28.360Z,10.65
2023-03-04T04:51:54.689Z,10.13
2023-03-04T04:54:21.076Z,11.73
2023-03-04T04:56:47.404Z,12.40
2023-03-04T04:59:13.836Z,11.48
2023-03-04T05:01:41.285Z,12.00
2023-03-04T05:04:07.717Z,12.93
2023-03-04T05:06:36.971Z,10.88
2023-03-04T05:09:04.399Z,12.50
2023-03-04T05:11:30.750Z,11.45
2023-03-04T05:13:57.121Z,10.27
2023-03-04T05:16:23.449Z,13.38
2023-03-04T05:18:49.785Z,13.82
2023-03-04T05:21:16.114Z,10.80
2023-03-04T05:23:43.223Z,11.98
2023-03-04T05:26:11.386Z,12.47
2023-03-04T05:28:37.715Z,11.82
2023-03-04T05:31:04.153Z,11.23
2023-03-04T05:33:30.923Z,13.30
2023-03-04T05:35:57.571Z,11.55
2023-03-04T05:38:24.044Z,13.63
2023-03-04T05:40:55.289Z,15.70
2023-03-04T05:43:22.780Z,14.05
2023-03-04T05:45:49.329Z,16.45
2023-03-04T05:48:15.898Z,16.80
2023-03-04T05:50:42.208Z,15.13
2023-03-04T05:53:08.547Z,12.60
2023-03-04T05:55:34.869Z,17.27
2023-03-04T05:58:01.244Z,16.33
2023-03-04T06:00:27.669Z,14.35
2023-03-04T06:02:54.059Z,15.02
2023-03-04T06:05:21.829Z,14.05
2023-03-04T06:07:48.148Z,13.80
2023-03-04T06:10:15.680Z,12.75
2023-03-04T06:12:42.059Z,12.40
2023-03-04T06:15:10.378Z,13.38
2023-03-04T06:17:38.555Z,15.23
2023-03-04T06:20:07.035Z,13.77
2023-03-04T06:22:34.373Z,12.52
2023-03-04T06:25:01.018Z,10.88
2023-03-04T06:27:27.414Z,10.57
2023-03-04T06:29:53.948Z,9.90
2023-03-04T06:32:20.362Z,10.65
2023-03-04T06:34:46.695Z,10.85
2023-03-04T06:37:13.127Z,12.60
2023-03-04T06:39:39.454Z,10.50
2023-03-04T06:42:05.859Z,12.85
2023-03-04T06:44:32.186Z,10.00
2023-03-04T06:46:58.826Z,11.80
2023-03-04T06:49:25.254Z,9.60
2023-03-04T06:51:51.694Z,14.15
2023-03-04T06:54:18.076Z,9.38
2023-03-04T06:56:44.384Z,12.00
2023-03-04T06:59:10.703Z,10.82
2023-03-04T07:01:38.058Z,10.63
2023-03-04T07:04:04.454Z,11.75
2023-03-04T07:06:30.988Z,9.45
2023-03-04T07:08:58.006Z,10.27
2023-03-04T07:11:24.933Z,15.40
2023-03-04T07:13:51.573Z,9.27
2023-03-04T07:16:19.619Z,9.38
2023-03-04T07:18:46.431Z,10.70
2023-03-04T07:21:13.756Z,13.02
2023-03-04T07:23:40.107Z,12.10
2023-03-04T07:26:06.799Z,12.50
2023-03-04T07:28:33.420Z,8.85
2023-03-04T07:31:32.502Z,9.55
2023-03-04T07:34:02.996Z,9.60
2023-03-04T07:36:29.514Z,13.63
2023-03-04T07:38:56.600Z,15.75
2023-03-04T07:41:23.908Z,12.50
2023-03-04T07:43:50.743Z,15.05
2023-03-04T07:46:18.143Z,13.35
2023-03-04T07:48:44.859Z,15.82
2023-03-04T07:51:18.446Z,16.08
2023-03-04T07:53:46.499Z,14.38
2023-03-04T07:56:14.084Z,20.15
2023-03-04T07:58:40.702Z,19.50
2023-03-04T08:01:11.402Z,17.27
2023-03-04T08:03:37.897Z,18.92
2023-03-04T08:06:05.200Z,16.67
2023-03-04T08:08:31.551Z,15.85
2023-03-04T08:10:58.060Z,16.92
2023-03-04T08:13:27.480Z,20.00
2023-03-04T08:15:55.672Z,17.05
2023-03-04T08:18:22.088Z,15.73
2023-03-04T08:20:48.918Z,19.88
2023-03-04T08:23:15.460Z,17.77
2023-03-04T08:25:41.965Z,13.68
2023-03-04T08:28:09.011Z,16.77
2023-03-04T08:30:35.429Z,14.45
2023-03-04T08:33:02.996Z,16.17
2023-03-04T08:35:29.471Z,15.10
2023-03-04T08:37:55.841Z,15.88
2023-03-04T08:40:22.414Z,15.05
2023-03-04T08:42:50.835Z,14.90
2023-03-04T08:45:19.375Z,14.43
2023-03-04T08:47:45.707Z,15.25
2023-03-04T08:50:12.081Z,17.67
2023-03-04T08:52:38.539Z,14.05
2023-03-04T08:55:40.779Z,12.38
2023-03-04T08:58:07.782Z,11.20
2023-03-04T09:00:34.870Z,11.60
2023-03-04T09:03:01.257Z,11.95
2023-03-04T09:05:27.674Z,10.10
2023-03-04T09:07:54.319Z,12.75
2023-03-04T09:10:20.696Z,12.30
2023-03-04T09:12:47.018Z,11.55
2023-03-04T09:15:13.744Z,11.55
2023-03-04T09:17:40.574Z,13.13
2023-03-04T09:20:11.854Z,9.15
2023-03-04T09:22:38.621Z,11.80
2023-03-04T09:25:07.393Z,12.82
2023-03-04T09:27:36.047Z,9.77
2023-03-04T09:30:02.426Z,13.45
2023-03-04T09:32:28.925Z,10.75
2023-03-04T09:34:55.273Z,10.00
2023-03-04T09:37:21.651Z,8.65
2023-03-04T09:39:49.985Z,6.90
2023-03-04T09:42:26.939Z,8.60
2023-03-04T09:44:54.067Z,9.50
2023-03-04T09:47:21.969Z,9.65
2023-03-04T09:52:24.070Z,7.03
2023-03-04T09:54:53.550Z,11.57
2023-03-04T09:57:29.864Z,11.50
2023-03-04T10:00:02.041Z,7.78
2023-03-04T10:02:36.652Z,9.05
2023-03-04T10:05:05.064Z,8.55
2023-03-04T10:07:36.434Z,10.38
2023-03-04T10:10:38.203Z,8.70
2023-03-04T10:13:05.881Z,8.88
2023-03-04T10:15:39.930Z,7.72
2023-03-04T10:18:15.116Z,9.73
2023-03-04T10:20:50.088Z,21.90
2023-03-04T10:23:19.320Z,9.73
2023-03-04T10:25:47.252Z,22.17
2023-03-04T10:30:39.881Z,16.48
2023-03-04T10:33:13.520Z,43.72
2023-03-04T10:35:41.119Z,57.33
2023-03-04T10:38:08.598Z,54.13
2023-03-04T10:40:39.030Z,84.53
2023-03-04T10:43:08.179Z,34.85
2023-03-04T10:45:38.956Z,32.30
2023-03-04T10:48:05.479Z,54.17
2023-03-04T10:50:32.758Z,31.60
2023-03-04T10:52:59.303Z,17.88
2023-03-04T10:55:29.714Z,11.80
2023-03-04T10:58:03.792Z,9.88
2023-03-04T11:00:33.969Z,11.52
2023-03-04T11:03:19.155Z,12.20
2023-03-04T11:05:45.486Z,10.60
2023-03-04T11:08:19.419Z,14.23
2023-03-04T11:10:46.083Z,14.27
2023-03-04T11:13:22.464Z,12.25
2023-03-04T11:15:51.611Z,10.32
2023-03-04T11:18:20.165Z,12.30
2023-03-04T11:20:48.840Z,11.18
2023-03-04T11:23:33.623Z,9.10
2023-03-04T11:26:04.690Z,12.38
2023-03-04T11:28:33.949Z,10.45
2023-03-04T11:31:03.187Z,9.55
2023-03-04T11:33:36.270Z,9.93
2023-03-04T11:36:21.239Z,11.20
2023-03-04T11:38:49.039Z,9.27
2023-03-04T11:41:33.354Z,11.07
2023-03-04T11:44:00.438Z,11.48
2023-03-04T11:46:26.917Z,9.43
2023-03-04T11:49:25.928Z,9.70
2023-03-04T11:51:58.029Z,14.85
2023-03-04T11:54:43.113Z,14.15
2023-03-04T11:57:26.722Z,10.88
2023-03-04T12:00:02.175Z,11.48
2023-03-04T12:02:32.292Z,12.73
2023-03-04T12:05:19.423Z,13.05
2023-03-04T12:07:45.893Z,14.57
2023-03-04T12:10:21.526Z,12.65
2023-03-04T12:12:54.077Z,16.45
2023-03-04T12:15:29.639Z,10.82
2023-03-04T12:17:58.976Z,11.68
2023-03-04T12:20:40.607Z,13.05
2023-03-04T12:23:06.904Z,14.77
2023-03-04T12:25:38.134Z,15.25
2023-03-04T12:28:14.343Z,15.40
2023-03-04T12:30:49.867Z,13.30
2023-03-04T12:33:22.178Z,15.10
2023-03-04T12:36:04.811Z,15.15
2023-03-04T12:38:31.110Z,12.35
2023-03-04T12:41:06.765Z,14.95
2023-03-04T12:43:41.305Z,12.23
2023-03-04T12:46:13.729Z,16.85
2023-03-04T12:48:48.432Z,16.33
2023-03-04T12:51:14.767Z,13.18
2023-03-04T12:53:41.084Z,15.15
2023-03-04T12:56:13.960Z,13.50
2023-03-04T12:58:40.368Z,14.73
2023-03-04T13:01:12.645Z,12.13
2023-03-04T13:03:44.203Z,14.50
2023-03-04T13:06:19.608Z,16.63
2023-03-04T13:08:46.017Z,13.52
2023-03-04T13:11:47.136Z,19.30
2023-03-04T13:14:18.176Z,14.25
2023-03-04T13:16:46.019Z,17.95
2023-03-04T13:19:31.300Z,13.23
2023-03-04T13:21:58.074Z,15.55
2023-03-04T13:24:43.345Z,14.07
2023-03-04T13:27:28.410Z,13.30
2023-03-04T13:29:54.768Z,12.82
2023-03-04T13:32:38.330Z,13.30
2023-03-04T13:35:24.672Z,12.43
2023-03-04T13:37:57.158Z,13.63
2023-03-04T13:40:32.756Z,13.82
2023-03-04T13:43:18.387Z,14.07
2023-03-04T13:45:44.825Z,14.82
2023-03-04T13:48:28.813Z,12.50
2023-03-04T13:50:55.503Z,12.98
2023-03-04T13:53:28.616Z,16.58
2023-03-04T13:56:09.334Z,14.70
2023-03-04T13:58:36.009Z,17.23
2023-03-04T14:01:03.052Z,14.48
2023-03-04T14:03:31.261Z,15.87
2023-03-04T14:06:10.494Z,14.70
2023-03-04T14:08:36.953Z,13.45
2023-03-04T14:11:03.296Z,13.27
2023-03-04T14:13:29.834Z,12.95
2023-03-04T14:15:57.620Z,13.10
2023-03-04T14:18:25.011Z,16.08
2023-03-04T14:20:51.741Z,14.68
2023-03-04T14:23:26.001Z,17.58
2023-03-04T14:25:52.386Z,14.00
2023-03-04T14:28:19.982Z,15.40
2023-03-04T14:30:53.606Z,14.80
2023-03-04T14:33:22.511Z,16.33
2023-03-04T14:35:50.172Z,13.82
2023-03-04T14:38:23.987Z,18.42
2023-03-04T14:40:55.940Z,15.00
2023-03-04T14:43:22.851Z,16.08
2023-03-04T14:45:51.184Z,15.35
2023-03-04T14:48:22.735Z,16.60
2023-03-04T14:50:53.347Z,16.88
2023-03-04T14:56:43.934Z,15.27
2023-03-04T14:59:13.016Z,20.88
2023-03-04T15:01:39.363Z,17.58
2023-03-04T15:04:11.320Z,17.73
2023-03-04T15:06:40.605Z,16.83
2023-03-04T15:09:27.215Z,16.33
2023-03-04T15:12:06.128Z,14.73
2023-03-04T15:14:38.693Z,15.70
2023-03-04T15:17:05.051Z,16.50
2023-03-04T15:19:31.499Z,18.00
2023-03-04T15:22:04.960Z,16.10
2023-03-04T15:24:31.275Z,15.00
2023-03-04T15:26:57.655Z,16.63
2023-03-04T15:29:24.028Z,19.17
2023-03-04T15:31:50.612Z,18.48
2023-03-04T15:34:17.694Z,15.73
2023-03-04T15:36:45.518Z,16.57
2023-03-04T15:41:38.109Z,16.50
2023-03-04T15:44:04.471Z,15.95
2023-03-04T15:46:30.801Z,15.82
2023-03-04T15:48:57.228Z,20.75
2023-03-04T15:51:23.757Z,27.42
2023-03-04T15:53:59.918Z,24.60
2023-03-04T15:56:28.113Z,24.23
2023-03-04T15:58:55.882Z,16.05
2023-03-04T16:01:23.019Z,20.23
2023-03-04T16:03:51.631Z,17.00
2023-03-04T16:06:23.790Z,16.48
2023-03-04T16:08:50.532Z,16.55
2023-03-04T16:11:18.754Z,19.85
2023-03-04T16:13:45.127Z,24.20
2023-03-04T16:16:12.257Z,22.05
2023-03-04T16:18:39.031Z,19.60
2023-03-04T16:21:06.312Z,16.83
2023-03-04T16:23:35.903Z,22.58
2023-03-04T16:26:02.648Z,19.25
2023-03-04T16:28:28.966Z,18.45
2023-03-04T16:30:55.433Z,23.15
2023-03-04T16:33:21.834Z,19.20
2023-03-04T16:35:48.318Z,21.15
2023-03-04T16:38:21.065Z,24.42
2023-03-04T16:40:47.552Z,21.92
2023-03-04T16:43:14.193Z,23.40
2023-03-04T16:45:41.109Z,23.88
2023-03-04T16:48:07.547Z,24.10
2023-03-04T16:50:35.454Z,23.17
2023-03-04T16:55:29.022Z,21.77
2023-03-04T16:57:55.835Z,19.40
2023-03-04T17:00:22.933Z,21.27
2023-03-04T17:02:59.301Z,20.53
2023-03-04T17:05:27.177Z,22.10
2023-03-04T17:07:53.866Z,19.05
2023-03-04T17:10:20.745Z,20.30
2023-03-04T17:12:47.317Z,17.10
2023-03-04T17:15:14.368Z,23.52
2023-03-04T17:17:41.263Z,22.57
2023-03-04T17:20:08.824Z,22.60
2023-03-04T17:22:35.172Z,19.30
2023-03-04T17:25:02.789Z,19.35
2023-03-04T17:27:29.893Z,20.25
2023-03-04T17:29:56.242Z,16.40
2023-03-04T17:32:22.652Z,18.50
2023-03-04T17:34:49.057Z,19.40
2023-03-04T17:37:15.418Z,19.58
2023-03-04T17:39:41.855Z,16.67
2023-03-04T17:42:08.297Z,15.90
2023-03-04T17:44:34.628Z,15.73
2023-03-04T17:47:00.995Z,17.48
2023-03-04T17:49:27.378Z,19.15
2023-03-04T17:51:53.792Z,15.88
2023-03-04T17:54:20.151Z,14.65
2023-03-04T17:56:47.614Z,15.00
2023-03-04T17:59:15.303Z,16.42
2023-03-04T18:01:41.895Z,17.40
2023-03-04T18:04:08.324Z,16.27
2023-03-04T18:06:34.694Z,14.15
2023-03-04T18:09:01.031Z,16.13
2023-03-04T18:11:28.081Z,19.00
2023-03-04T18:13:56.538Z,18.07
2023-03-04T18:16:24.856Z,16.33
2023-03-04T18:18:51.339Z,15.80
2023-03-04T18:21:18.579Z,14.82
2023-03-04T18:23:45.210Z,15.57
2023-03-04T18:26:11.853Z,15.55
2023-03-04T18:28:38.511Z,18.90
2023-03-04T18:31:05.023Z,15.10
2023-03-04T18:33:32.064Z,19.85
2023-03-04T18:36:02.668Z,17.97
2023-03-04T18:38:29.812Z,17.15
2023-03-04T18:40:59.464Z,18.83
2023-03-04T18:43:26.286Z,15.88
2023-03-04T18:45:59.662Z,16.90
2023-03-04T18:48:26.019Z,14.93
2023-03-04T18:50:53.827Z,17.80
2023-03-04T18:53:20.189Z,16.60
2023-03-04T18:55:46.513Z,15.93
2023-03-04T18:58:12.844Z,25.23
2023-03-04T19:00:39.172Z,25.92
2023-03-04T19:03:07.347Z,23.92
2023-03-04T19:05:33.805Z,47.55
2023-03-04T19:08:00.192Z,18.88
2023-03-04T19:10:26.855Z,15.82
2023-03-04T19:12:53.254Z,17.38
2023-03-04T19:15:20.158Z,17.00
2023-03-04T19:17:46.590Z,31.38
2023-03-04T19:20:13.595Z,30.65
2023-03-04T19:22:40.035Z,36.75
2023-03-04T19:25:06.707Z,18.15
2023-03-04T19:27:33.079Z,20.67
2023-03-04T19:29:59.468Z,16.67
2023-03-04T19:32:26.202Z,19.77
2023-03-04T19:34:52.613Z,15.07
2023-03-04T19:37:18.987Z,18.80
2023-03-04T19:39:46.520Z,19.10
2023-03-04T19:42:13.046Z,20.98
2023-03-04T19:44:39.484Z,21.42
2023-03-04T19:47:06.260Z,23.92
2023-03-04T19:49:32.989Z,24.15
2023-03-04T19:51:59.338Z,17.00
2023-03-04T19:54:25.720Z,18.13
2023-03-04T19:56:52.065Z,23.85
2023-03-04T19:59:18.527Z,23.35
2023-03-04T20:01:45.580Z,22.67
2023-03-04T20:04:13.968Z,24.37
2023-03-04T20:06:41.300Z,33.63
2023-03-04T20:09:07.994Z,19.10
2023-03-04T20:11:39.219Z,22.70
2023-03-04T20:14:10.562Z,16.95
2023-03-04T20:16:37.032Z,21.52
2023-03-04T20:19:03.523Z,18.80
2023-03-04T20:21:31.569Z,24.70
2023-03-04T20:26:24.249Z,17.65
2023-03-04T20:28:51.126Z,21.30
2023-03-04T20:31:22.010Z,45.53
2023-03-04T20:33:48.905Z,21.25
2023-03-04T20:36:19.364Z,36.75
2023-03-04T20:38:45.776Z,20.60
2023-03-04T20:41:12.262Z,19.77
2023-03-04T20:43:38.780Z,28.15
2023-03-04T20:46:23.939Z,27.58
2023-03-04T20:48:50.273Z,62.63
2023-03-04T20:51:16.626Z,46.65
2023-03-04T20:53:42.946Z,60.15
2023-03-04T20:56:09.462Z,53.85
2023-03-04T20:58:35.772Z,34.35
2023-03-04T21:01:02.099Z,30.67
2023-03-04T21:03:29.352Z,21.63
2023-03-04T21:05:55.773Z,21.77
2023-03-04T21:08:22.285Z,39.08
2023-03-04T21:10:49.122Z,21.40
2023-03-04T21:13:16.774Z,18.40
2023-03-04T21:15:46.755Z,19.95
2023-03-04T21:18:13.158Z,16.42
2023-03-04T21:20:40.024Z,18.98
2023-03-04T21:23:06.419Z,19.60
2023-03-04T21:25:32.973Z,15.63
2023-03-04T21:27:59.323Z,20.45
2023-03-04T21:30:25.641Z,28.85
2023-03-04T21:32:52.506Z,17.83
2023-03-04T21:35:19.379Z,17.15
2023-03-04T21:37:45.774Z,15.05
2023-03-04T21:40:12.904Z,18.17
2023-03-04T21:42:39.702Z,18.93
2023-03-04T21:45:06.774Z,23.95
2023-03-04T21:47:33.920Z,15.77
2023-03-04T21:50:00.395Z,17.97
2023-03-04T21:52:26.771Z,16.58
2023-03-04T21:54:53.142Z,15.20
2023-03-04T21:57:19.546Z,16.55
2023-03-04T21:59:46.019Z,18.25
2023-03-04T22:02:16.896Z,13.88
2023-03-04T22:04:43.460Z,19.75
2023-03-04T22:07:10.020Z,22.88
2023-03-04T22:09:36.440Z,16.13
2023-03-04T22:12:02.956Z,20.23
2023-03-04T22:14:29.567Z,19.08
2023-03-04T22:16:56.534Z,14.52
2023-03-04T22:19:23.564Z,15.10
2023-03-04T22:21:51.342Z,19.20
2023-03-04T22:24:18.021Z,15.20
2023-03-04T22:26:44.475Z,12.93
2023-03-04T22:29:10.950Z,15.25
2023-03-04T22:31:38.114Z,16.75
2023-03-04T22:34:06.035Z,20.05
2023-03-04T22:38:58.915Z,16.00
2023-03-04T22:41:25.410Z,20.33
2023-03-04T22:43:51.960Z,13.73
2023-03-04T22:46:21.485Z,15.40
2023-03-04T22:48:48.758Z,15.38
2023-03-04T22:51:15.536Z,15.48
2023-03-04T22:53:43.505Z,17.05
2023-03-04T22:58:36.241Z,18.50
2023-03-04T23:01:03.821Z,18.58
2023-03-04T23:03:31.069Z,21.52
2023-03-04T23:06:01.617Z,20.52
2023-03-04T23:08:28.071Z,18.55
2023-03-04T23:10:54.528Z,16.63
2023-03-04T23:13:20.927Z,15.27
2023-03-04T23:15:47.274Z,17.75
2023-03-04T23:18:13.705Z,18.90
2023-03-04T23:20:42.265Z,18.73
2023-03-04T23:23:08.845Z,16.92
2023-03-04T23:25:35.539Z,17.42
2023-03-04T23:28:01.966Z,13.02
2023-03-04T23:30:28.490Z,16.17
2023-03-04T23:32:55.167Z,16.58
2023-03-04T23:35:21.582Z,17.52
2023-03-04T23:37:49.931Z,18.05
2023-03-04T23:40:16.294Z,14.82
2023-03-04T23:42:42.664Z,14.80
2023-03-04T23:45:09.354Z,14.40
2023-03-04T23:47:35.751Z,16.52
2023-03-04T23:50:03.832Z,14.02
2023-03-04T23:52:30.205Z,14.85
2023-03-04T23:54:57.246Z,16.45
2023-03-04T23:57:24.392Z,17.33
2023-03-04T23:59:50.722Z,14.27
